createdAt,value
2019-03-05T00:03:56.798Z,92.60
2019-03-05T00:08:48.236Z,92.30
2019-03-05T00:13:39.634Z,91.00
2019-03-05T00:18:31.241Z,92.00
2019-03-05T00:23:24.819Z,91.30
2019-03-05T00:28:16.281Z,92.00
2019-03-05T00:33:09.928Z,92.70
2019-03-05T00:38:03.583Z,91.90
2019-03-05T00:42:55.053Z,93.30
2019-03-05T00:47:46.440Z,95.90
2019-03-05T00:52:37.824Z,96.90
2019-03-05T00:57:29.215Z,97.40
2019-03-05T01:02:20.593Z,98.40
2019-03-05T01:07:12.017Z,99.90
2019-03-05T01:12:03.364Z,99.90
2019-03-05T01:16:57.029Z,99.90
2019-03-05T01:21:48.421Z,99.90
2019-03-05T01:26:39.907Z,99.90
2019-03-05T01:31:31.370Z,99.90
2019-03-05T01:36:22.686Z,99.90
2019-03-05T01:41:14.132Z,99.90
2019-03-05T01:46:05.512Z,99.90
2019-03-05T01:50:57.004Z,99.90
2019-03-05T01:55:48.301Z,99.90
2019-03-05T02:00:39.669Z,99.90
2019-03-05T02:05:31.073Z,99.90
2019-03-05T02:10:22.501Z,99.90
2019-03-05T02:15:13.840Z,99.90
2019-03-05T02:20:05.264Z,99.90
2019-03-05T02:24:56.580Z,99.90
2019-03-05T02:29:48.013Z,99.90
2019-03-05T02:34:41.646Z,99.90
2019-03-05T02:39:35.359Z,99.90
2019-03-05T02:44:26.727Z,99.90
2019-03-05T02:49:18.158Z,99.90
2019-03-05T02:54:09.568Z,99.90
2019-03-05T02:59:00.908Z,99.90
2019-03-05T03:03:52.323Z,99.90
2019-03-05T03:08:43.757Z,99.90
2019-03-05T03:13:37.311Z,99.90
2019-03-05T03:18:28.814Z,99.90
2019-03-05T03:23:20.116Z,99.90
2019-03-05T03:28:11.553Z,98.90
2019-03-05T03:33:02.997Z,98.80
2019-03-05T03:37:56.516Z,99.20
2019-03-05T03:42:48.018Z,98.80
2019-03-05T03:47:39.308Z,98.30
2019-03-05T03:52:30.730Z,99.10
2019-03-05T03:57:24.366Z,99.90
2019-03-05T04:02:20.258Z,99.90
2019-03-05T04:07:13.921Z,99.90
2019-03-05T04:16:56.784Z,99.90
2019-03-05T04:21:50.408Z,99.90
2019-03-05T04:26:44.065Z,99.90
2019-03-05T04:31:37.702Z,99.90
2019-03-05T04:36:29.157Z,99.90
2019-03-05T04:41:22.774Z,99.90
2019-03-05T04:46:14.175Z,99.90
2019-03-05T04:51:05.606Z,99.90
2019-03-05T04:55:57.026Z,99.90
2019-03-05T05:00:48.455Z,99.90
2019-03-05T05:05:39.745Z,99.90
2019-03-05T05:10:35.657Z,99.90
2019-03-05T05:15:27.080Z,99.90
2019-03-05T05:20:18.456Z,99.90
2019-03-05T05:25:09.876Z,99.90
2019-03-05T05:30:01.313Z,99.90
2019-03-05T05:34:52.628Z,99.90
2019-03-05T05:39:44.082Z,99.90
2019-03-05T05:44:35.485Z,99.90
2019-03-05T05:49:26.910Z,99.90
2019-03-05T05:54:18.309Z,99.90
2019-03-05T05:59:09.714Z,99.90
2019-03-05T06:04:01.093Z,99.90
2019-03-05T06:08:54.674Z,99.90
2019-03-05T06:13:46.125Z,99.90
2019-03-05T06:18:37.482Z,99.90
2019-03-05T06:23:28.887Z,99.30
2019-03-05T06:28:20.274Z,98.70
2019-03-05T06:33:11.708Z,98.60
2019-03-05T06:38:03.112Z,97.70
2019-03-05T06:42:54.486Z,96.80
2019-03-05T06:47:45.904Z,95.90
2019-03-05T06:52:37.248Z,95.00
2019-03-05T06:57:30.866Z,95.60
2019-03-05T07:02:24.530Z,93.60
2019-03-05T07:07:15.988Z,93.30
2019-03-05T07:12:09.562Z,92.10
2019-03-05T07:17:03.258Z,91.60
2019-03-05T07:21:56.909Z,91.40
2019-03-05T07:26:50.550Z,89.00
2019-03-05T07:31:44.230Z,83.20
2019-03-05T07:36:37.875Z,80.50
2019-03-05T07:41:29.410Z,75.20
2019-03-05T07:46:20.719Z,71.80
2019-03-05T07:51:12.119Z,71.20
2019-03-05T07:56:03.579Z,71.90
2019-03-05T08:00:54.899Z,64.80
2019-03-05T08:05:48.088Z,68.50
2019-03-05T08:10:37.641Z,67.60
2019-03-05T08:15:29.056Z,65.70
2019-03-05T08:20:20.472Z,68.70
2019-03-05T08:25:11.823Z,74.10
2019-03-05T08:30:15.279Z,69.40
2019-03-05T08:34:57.125Z,67.30
2019-03-05T08:39:48.446Z,57.80
2019-03-05T08:44:51.171Z,62.10
2019-03-05T08:49:33.456Z,58.40
2019-03-05T08:54:24.875Z,55.60
2019-03-05T08:59:18.487Z,54.60
2019-03-05T09:04:09.915Z,53.70
2019-03-05T09:09:01.296Z,50.80
2019-03-05T09:13:57.165Z,49.60
2019-03-05T09:18:48.611Z,47.10
2019-03-05T09:23:39.954Z,43.60
2019-03-05T09:28:31.383Z,39.00
2019-03-05T09:33:22.790Z,36.30
2019-03-05T09:38:14.187Z,34.20
2019-03-05T09:43:05.536Z,33.90
2019-03-05T09:47:56.937Z,32.10
2019-03-05T09:52:55.742Z,28.80
2019-03-05T09:57:41.985Z,26.60
2019-03-05T10:02:33.392Z,26.80
2019-03-05T10:07:24.841Z,24.90
2019-03-05T10:12:16.149Z,26.10
2019-03-05T10:17:07.520Z,24.70
2019-03-05T10:21:58.933Z,25.90
2019-03-05T10:26:50.344Z,24.20
2019-03-05T10:31:43.967Z,22.40
2019-03-05T10:36:35.346Z,24.10
2019-03-05T10:41:26.776Z,23.40
2019-03-05T10:46:18.133Z,23.30
2019-03-05T10:51:11.811Z,25.60
2019-03-05T10:56:03.249Z,24.60
2019-03-05T11:00:54.671Z,25.40
2019-03-05T11:10:41.864Z,24.60
2019-03-05T11:15:33.336Z,23.60
2019-03-05T11:20:24.713Z,23.80
2019-03-05T11:25:16.178Z,24.90
2019-03-05T11:30:07.576Z,23.40
2019-03-05T11:34:58.948Z,21.80
2019-03-05T11:39:52.539Z,21.00
2019-03-05T11:45:07.709Z,22.90
2019-03-05T11:49:35.378Z,20.70
2019-03-05T11:54:26.737Z,22.40
2019-03-05T11:59:18.157Z,21.80
2019-03-05T12:04:09.526Z,24.20
2019-03-05T12:09:00.969Z,26.00
2019-03-05T12:13:52.308Z,24.80
2019-03-05T12:18:43.687Z,25.80
2019-03-05T12:23:35.150Z,27.20
2019-03-05T12:28:26.541Z,27.20
2019-03-05T12:33:20.117Z,28.20
2019-03-05T12:38:11.550Z,28.20
2019-03-05T12:43:03.055Z,27.60
2019-03-05T12:47:54.848Z,27.30
2019-03-05T12:52:45.990Z,29.20
2019-03-05T12:57:39.330Z,28.90
2019-03-05T13:02:33.075Z,30.30
2019-03-05T13:07:24.578Z,32.40
2019-03-05T13:12:15.978Z,38.90
2019-03-05T13:17:07.381Z,37.20
2019-03-05T13:21:58.796Z,37.70
2019-03-05T13:26:50.199Z,39.30
2019-03-05T13:31:43.364Z,38.80
2019-03-05T13:36:33.053Z,44.10
2019-03-05T13:41:26.643Z,45.00
2019-03-05T13:46:18.029Z,52.30
2019-03-05T13:56:05.490Z,61.60
2019-03-05T14:01:05.755Z,76.20
2019-03-05T14:05:59.399Z,78.50
2019-03-05T14:10:50.861Z,79.30
2019-03-05T14:15:44.459Z,78.60
2019-03-05T14:20:37.207Z,85.50
2019-03-05T14:25:27.344Z,85.20
2019-03-05T14:30:21.743Z,84.00
2019-03-05T14:35:10.112Z,94.80
2019-03-05T14:40:25.224Z,94.90
2019-03-05T14:44:52.844Z,97.00
2019-03-05T14:49:44.261Z,95.20
2019-03-05T14:54:35.637Z,97.40
2019-03-05T14:59:26.999Z,93.80
2019-03-05T15:04:18.437Z,97.20
2019-03-05T15:09:09.809Z,97.10
2019-03-05T15:14:01.153Z,99.80
2019-03-05T15:18:54.749Z,99.90
2019-03-05T15:23:50.718Z,99.70
2019-03-05T15:28:55.630Z,99.10
2019-03-05T15:33:35.837Z,99.90
2019-03-05T15:38:36.288Z,99.90
2019-03-05T15:43:27.937Z,99.90
2019-03-05T15:48:21.395Z,99.90
2019-03-05T15:53:12.830Z,99.40
2019-03-05T15:58:04.152Z,99.90
2019-03-05T16:07:49.539Z,99.90
2019-03-05T16:12:38.300Z,99.90
2019-03-05T16:17:30.178Z,99.90
2019-03-05T16:22:21.123Z,99.90
2019-03-05T16:27:12.519Z,99.90
2019-03-05T16:32:03.900Z,99.90
2019-03-05T16:37:01.955Z,99.90
2019-03-05T16:41:58.255Z,99.90
2019-03-05T16:46:44.868Z,99.90
2019-03-05T16:51:38.601Z,99.90
2019-03-05T16:56:30.274Z,99.90
2019-03-05T17:01:21.578Z,99.90
2019-03-05T17:11:06.898Z,99.90
2019-03-05T17:15:58.946Z,99.90
2019-03-05T17:20:49.679Z,99.90
2019-03-05T17:25:43.095Z,99.90
2019-03-05T17:30:35.061Z,99.90
2019-03-05T17:35:25.797Z,99.90
2019-03-05T17:40:19.371Z,99.90
2019-03-05T17:45:10.858Z,99.90
2019-03-05T17:50:02.270Z,99.90
2019-03-05T17:54:53.715Z,99.90
2019-03-05T17:59:45.081Z,99.90
2019-03-05T18:04:36.348Z,99.90
2019-03-05T18:09:27.939Z,99.90
2019-03-05T18:14:19.224Z,99.90
2019-03-05T18:19:11.058Z,99.90
2019-03-05T18:24:01.970Z,99.90
2019-03-05T18:28:53.468Z,99.90
2019-03-05T18:33:44.829Z,99.90
2019-03-05T18:38:38.459Z,99.90
2019-03-05T18:43:29.914Z,99.90
2019-03-05T18:48:21.293Z,99.90
2019-03-05T18:53:12.767Z,99.90
2019-03-05T18:58:04.104Z,99.90
2019-03-05T19:02:55.641Z,99.90
2019-03-05T19:07:49.174Z,99.90
2019-03-05T19:12:40.686Z,99.90
2019-03-05T19:17:36.559Z,99.90
2019-03-05T19:22:28.037Z,99.90
2019-03-05T19:27:26.718Z,99.90
2019-03-05T19:32:10.778Z,99.90
2019-03-05T19:37:04.404Z,99.90
2019-03-05T19:41:56.793Z,99.90
2019-03-05T19:46:49.491Z,99.90
2019-03-05T19:56:34.613Z,99.90
2019-03-05T20:01:25.990Z,99.90
2019-03-05T20:06:17.881Z,99.90
2019-03-05T20:11:08.910Z,99.90
2019-03-05T20:16:00.207Z,99.90
2019-03-05T20:20:51.623Z,99.90
2019-03-05T20:25:43.041Z,99.90
2019-03-05T20:30:34.518Z,99.90
2019-03-05T20:35:25.828Z,99.90
2019-03-05T20:40:17.372Z,99.90
2019-03-05T20:45:11.020Z,99.90
2019-03-05T20:50:02.527Z,99.90
2019-03-05T20:54:53.954Z,99.90
2019-03-05T20:59:45.389Z,99.90
2019-03-05T21:04:36.799Z,99.90
2019-03-05T21:09:28.309Z,99.90
2019-03-05T21:14:20.417Z,99.90
2019-03-05T21:19:14.066Z,99.90
2019-03-05T21:24:07.698Z,99.90
2019-03-05T21:28:59.123Z,99.90
2019-03-05T21:33:52.455Z,99.90
2019-03-05T21:38:42.062Z,99.90
2019-03-05T21:43:35.688Z,99.90
2019-03-05T21:48:27.180Z,99.90
2019-03-05T21:53:18.576Z,99.90
2019-03-05T21:58:09.971Z,99.90
2019-03-05T22:03:01.430Z,99.90
2019-03-05T22:07:52.729Z,99.90
2019-03-05T22:12:44.171Z,99.90
2019-03-05T22:17:35.588Z,99.90
2019-03-05T22:22:26.999Z,99.90
2019-03-05T22:27:18.765Z,99.90
2019-03-05T22:32:09.751Z,99.90
2019-03-05T22:37:01.149Z,99.90
2019-03-05T22:41:52.536Z,99.90
2019-03-05T22:46:43.896Z,99.90
2019-03-05T22:51:35.300Z,99.90
2019-03-05T22:56:26.691Z,99.90
2019-03-05T23:01:18.141Z,99.90
2019-03-05T23:06:11.777Z,99.90
2019-03-05T23:11:03.188Z,99.90
2019-03-05T23:15:56.816Z,99.90
2019-03-05T23:20:48.252Z,99.90
2019-03-05T23:25:39.625Z,99.90
2019-03-05T23:30:33.252Z,99.90
2019-03-05T23:35:29.218Z,99.90
2019-03-05T23:40:20.659Z,99.90
2019-03-05T23:45:12.026Z,99.90
2019-03-05T23:50:03.390Z,99.90
2019-03-05T23:54:54.808Z,99.90
2019-03-05T23:59:48.388Z,99.90
